sensor_id;sensor_type;location;lat;lon;timestamp;P1;durP1;ratioP1;P2;durP2;ratioP2
51214;SDS011;63849;47.546;19.254;2024-02-16T00:00:18;36.65;;;25.48;;
51214;SDS011;63849;47.546;19.254;2024-02-16T00:02:43;32.47;;;25.13;;
51214;SDS011;63849;47.546;19.254;2024-02-16T00:05:10;35.33;;;26.20;;
51214;SDS011;63849;47.546;19.254;2024-02-16T00:07:39;36.00;;;25.65;;
51214;SDS011;63849;47.546;19.254;2024-02-16T00:10:05;36.03;;;27.10;;
51214;SDS011;63849;47.546;19.254;2024-02-16T00:12:32;35.20;;;25.00;;
51214;SDS011;63849;47.546;19.254;2024-02-16T00:15:01;32.45;;;23.73;;
51214;SDS011;63849;47.546;19.254;2024-02-16T00:17:27;34.20;;;24.73;;
51214;SDS011;63849;47.546;19.254;2024-02-16T00:19:53;35.70;;;25.13;;
51214;SDS011;63849;47.546;19.254;2024-02-16T00:22:19;32.78;;;24.77;;
51214;SDS011;63849;47.546;19.254;2024-02-16T00:24:46;32.88;;;24.48;;
51214;SDS011;63849;47.546;19.254;2024-02-16T00:27:11;35.25;;;24.83;;
51214;SDS011;63849;47.546;19.254;2024-02-16T00:29:37;34.47;;;24.67;;
51214;SDS011;63849;47.546;19.254;2024-02-16T00:32:06;31.33;;;24.48;;
51214;SDS011;63849;47.546;19.254;2024-02-16T00:34:34;33.17;;;24.55;;
51214;SDS011;63849;47.546;19.254;2024-02-16T00:37:01;34.25;;;23.83;;
51214;SDS011;63849;47.546;19.254;2024-02-16T00:39:28;35.47;;;24.02;;
51214;SDS011;63849;47.546;19.254;2024-02-16T00:41:54;31.50;;;24.08;;
51214;SDS011;63849;47.546;19.254;2024-02-16T00:44:20;32.50;;;23.40;;
51214;SDS011;63849;47.546;19.254;2024-02-16T00:46:46;31.60;;;23.70;;
51214;SDS011;63849;47.546;19.254;2024-02-16T00:49:11;30.83;;;23.90;;
51214;SDS011;63849;47.546;19.254;2024-02-16T00:51:37;31.45;;;24.05;;
51214;SDS011;63849;47.546;19.254;2024-02-16T00:54:10;35.78;;;24.08;;
51214;SDS011;63849;47.546;19.254;2024-02-16T00:56:36;31.70;;;23.85;;
51214;SDS011;63849;47.546;19.254;2024-02-16T00:59:01;35.67;;;23.80;;
51214;SDS011;63849;47.546;19.254;2024-02-16T01:01:27;34.90;;;24.05;;
51214;SDS011;63849;47.546;19.254;2024-02-16T01:03:53;31.52;;;24.08;;
51214;SDS011;63849;47.546;19.254;2024-02-16T01:06:19;32.75;;;22.95;;
51214;SDS011;63849;47.546;19.254;2024-02-16T01:08:45;35.15;;;24.33;;
51214;SDS011;63849;47.546;19.254;2024-02-16T01:11:11;34.65;;;23.85;;
51214;SDS011;63849;47.546;19.254;2024-02-16T01:13:38;34.33;;;23.98;;
51214;SDS011;63849;47.546;19.254;2024-02-16T01:16:04;33.10;;;24.98;;
51214;SDS011;63849;47.546;19.254;2024-02-16T01:18:31;34.85;;;26.02;;
51214;SDS011;63849;47.546;19.254;2024-02-16T01:20:57;33.33;;;26.27;;
51214;SDS011;63849;47.546;19.254;2024-02-16T01:23:23;36.92;;;24.55;;
51214;SDS011;63849;47.546;19.254;2024-02-16T01:25:49;39.50;;;25.65;;
51214;SDS011;63849;47.546;19.254;2024-02-16T01:28:15;34.60;;;25.40;;
51214;SDS011;63849;47.546;19.254;2024-02-16T01:30:41;32.90;;;24.58;;
51214;SDS011;63849;47.546;19.254;2024-02-16T01:33:07;35.70;;;26.27;;
51214;SDS011;63849;47.546;19.254;2024-02-16T01:35:33;39.53;;;28.23;;
51214;SDS011;63849;47.546;19.254;2024-02-16T01:37:59;37.15;;;27.77;;
51214;SDS011;63849;47.546;19.254;2024-02-16T01:40:26;35.53;;;27.30;;
51214;SDS011;63849;47.546;19.254;2024-02-16T01:42:52;38.55;;;26.73;;
51214;SDS011;63849;47.546;19.254;2024-02-16T01:45:18;38.67;;;28.33;;
51214;SDS011;63849;47.546;19.254;2024-02-16T01:47:44;35.13;;;27.70;;
51214;SDS011;63849;47.546;19.254;2024-02-16T01:50:12;35.80;;;26.83;;
51214;SDS011;63849;47.546;19.254;2024-02-16T01:52:40;37.22;;;27.05;;
51214;SDS011;63849;47.546;19.254;2024-02-16T01:55:08;40.83;;;28.40;;
51214;SDS011;63849;47.546;19.254;2024-02-16T01:57:35;37.63;;;28.92;;
51214;SDS011;63849;47.546;19.254;2024-02-16T02:00:01;35.95;;;27.90;;
51214;SDS011;63849;47.546;19.254;2024-02-16T02:02:28;39.22;;;28.58;;
51214;SDS011;63849;47.546;19.254;2024-02-16T02:04:54;38.63;;;29.55;;
51214;SDS011;63849;47.546;19.254;2024-02-16T02:07:24;38.25;;;29.27;;
51214;SDS011;63849;47.546;19.254;2024-02-16T02:09:51;37.53;;;27.98;;
51214;SDS011;63849;47.546;19.254;2024-02-16T02:12:17;39.72;;;28.05;;
51214;SDS011;63849;47.546;19.254;2024-02-16T02:14:43;40.05;;;28.88;;
51214;SDS011;63849;47.546;19.254;2024-02-16T02:17:09;38.47;;;28.45;;
51214;SDS011;63849;47.546;19.254;2024-02-16T02:19:35;37.10;;;26.30;;
51214;SDS011;63849;47.546;19.254;2024-02-16T02:22:00;38.28;;;27.33;;
51214;SDS011;63849;47.546;19.254;2024-02-16T02:24:26;40.88;;;28.75;;
51214;SDS011;63849;47.546;19.254;2024-02-16T02:26:52;39.00;;;27.95;;
51214;SDS011;63849;47.546;19.254;2024-02-16T02:29:18;39.65;;;28.48;;
51214;SDS011;63849;47.546;19.254;2024-02-16T02:31:45;41.72;;;29.02;;
51214;SDS011;63849;47.546;19.254;2024-02-16T02:34:10;43.42;;;28.98;;
51214;SDS011;63849;47.546;19.254;2024-02-16T02:36:36;41.15;;;29.52;;
51214;SDS011;63849;47.546;19.254;2024-02-16T02:39:02;42.47;;;30.25;;
51214;SDS011;63849;47.546;19.254;2024-02-16T02:41:28;39.85;;;29.40;;
51214;SDS011;63849;47.546;19.254;2024-02-16T02:43:54;40.10;;;29.45;;
51214;SDS011;63849;47.546;19.254;2024-02-16T02:46:20;42.55;;;30.88;;
51214;SDS011;63849;47.546;19.254;2024-02-16T02:48:48;44.70;;;30.38;;
51214;SDS011;63849;47.546;19.254;2024-02-16T02:51:15;42.42;;;30.92;;
51214;SDS011;63849;47.546;19.254;2024-02-16T02:53:40;37.92;;;28.02;;
51214;SDS011;63849;47.546;19.254;2024-02-16T02:56:06;39.10;;;28.77;;
51214;SDS011;63849;47.546;19.254;2024-02-16T02:58:32;39.25;;;29.38;;
51214;SDS011;63849;47.546;19.254;2024-02-16T03:00:58;39.15;;;29.25;;
51214;SDS011;63849;47.546;19.254;2024-02-16T03:03:24;52.33;;;32.50;;
51214;SDS011;63849;47.546;19.254;2024-02-16T03:05:49;50.28;;;35.35;;
51214;SDS011;63849;47.546;19.254;2024-02-16T03:08:15;45.92;;;33.20;;
51214;SDS011;63849;47.546;19.254;2024-02-16T03:10:41;42.45;;;31.70;;
51214;SDS011;63849;47.546;19.254;2024-02-16T03:13:07;38.83;;;28.38;;
51214;SDS011;63849;47.546;19.254;2024-02-16T03:15:33;37.95;;;28.13;;
51214;SDS011;63849;47.546;19.254;2024-02-16T03:18:01;45.45;;;30.88;;
51214;SDS011;63849;47.546;19.254;2024-02-16T03:20:27;41.25;;;29.25;;
51214;SDS011;63849;47.546;19.254;2024-02-16T03:22:52;43.83;;;29.88;;
51214;SDS011;63849;47.546;19.254;2024-02-16T03:25:18;40.13;;;29.08;;
51214;SDS011;63849;47.546;19.254;2024-02-16T03:27:44;40.67;;;30.73;;
51214;SDS011;63849;47.546;19.254;2024-02-16T03:30:10;43.60;;;31.08;;
51214;SDS011;63849;47.546;19.254;2024-02-16T03:32:36;44.58;;;31.83;;
51214;SDS011;63849;47.546;19.254;2024-02-16T03:35:02;42.63;;;31.20;;
51214;SDS011;63849;47.546;19.254;2024-02-16T03:37:29;45.22;;;31.85;;
51214;SDS011;63849;47.546;19.254;2024-02-16T03:39:55;45.22;;;32.42;;
51214;SDS011;63849;47.546;19.254;2024-02-16T03:42:21;44.38;;;32.78;;
51214;SDS011;63849;47.546;19.254;2024-02-16T03:44:47;49.63;;;33.05;;
51214;SDS011;63849;47.546;19.254;2024-02-16T03:47:12;47.70;;;33.13;;
51214;SDS011;63849;47.546;19.254;2024-02-16T03:49:39;51.95;;;34.67;;
51214;SDS011;63849;47.546;19.254;2024-02-16T03:52:04;48.53;;;35.25;;
51214;SDS011;63849;47.546;19.254;2024-02-16T03:54:30;51.40;;;33.58;;
51214;SDS011;63849;47.546;19.254;2024-02-16T03:56:56;50.38;;;35.22;;
51214;SDS011;63849;47.546;19.254;2024-02-16T03:59:23;51.92;;;34.97;;
51214;SDS011;63849;47.546;19.254;2024-02-16T04:01:49;50.95;;;34.78;;
51214;SDS011;63849;47.546;19.254;2024-02-16T04:04:16;53.70;;;36.03;;
51214;SDS011;63849;47.546;19.254;2024-02-16T04:06:42;51.55;;;37.40;;
51214;SDS011;63849;47.546;19.254;2024-02-16T04:09:07;53.75;;;37.08;;
51214;SDS011;63849;47.546;19.254;2024-02-16T04:11:33;49.40;;;36.78;;
51214;SDS011;63849;47.546;19.254;2024-02-16T04:14:00;50.50;;;36.88;;
51214;SDS011;63849;47.546;19.254;2024-02-16T04:16:26;53.08;;;36.65;;
51214;SDS011;63849;47.546;19.254;2024-02-16T04:18:51;48.35;;;36.08;;
51214;SDS011;63849;47.546;19.254;2024-02-16T04:21:17;53.97;;;37.08;;
51214;SDS011;63849;47.546;19.254;2024-02-16T04:23:43;52.88;;;36.13;;
51214;SDS011;63849;47.546;19.254;2024-02-16T04:26:09;51.28;;;36.33;;
51214;SDS011;63849;47.546;19.254;2024-02-16T04:28:35;50.10;;;35.35;;
51214;SDS011;63849;47.546;19.254;2024-02-16T04:31:01;49.05;;;35.75;;
51214;SDS011;63849;47.546;19.254;2024-02-16T04:33:27;54.08;;;35.85;;
51214;SDS011;63849;47.546;19.254;2024-02-16T04:35:52;58.72;;;37.42;;
51214;SDS011;63849;47.546;19.254;2024-02-16T04:38:18;49.70;;;35.90;;
51214;SDS011;63849;47.546;19.254;2024-02-16T04:40:45;54.40;;;36.60;;
51214;SDS011;63849;47.546;19.254;2024-02-16T04:43:11;48.85;;;35.70;;
51214;SDS011;63849;47.546;19.254;2024-02-16T04:45:36;49.13;;;34.65;;
51214;SDS011;63849;47.546;19.254;2024-02-16T04:48:03;50.60;;;35.42;;
51214;SDS011;63849;47.546;19.254;2024-02-16T04:50:32;48.58;;;35.08;;
51214;SDS011;63849;47.546;19.254;2024-02-16T04:52:58;49.80;;;33.88;;
51214;SDS011;63849;47.546;19.254;2024-02-16T04:55:26;52.30;;;34.10;;
51214;SDS011;63849;47.546;19.254;2024-02-16T04:57:53;48.13;;;34.47;;
51214;SDS011;63849;47.546;19.254;2024-02-16T05:00:20;48.67;;;33.95;;
51214;SDS011;63849;47.546;19.254;2024-02-16T05:02:45;45.35;;;33.35;;
51214;SDS011;63849;47.546;19.254;2024-02-16T05:05:11;45.00;;;32.58;;
51214;SDS011;63849;47.546;19.254;2024-02-16T05:07:37;47.83;;;33.80;;
51214;SDS011;63849;47.546;19.254;2024-02-16T05:10:03;44.50;;;32.47;;
51214;SDS011;63849;47.546;19.254;2024-02-16T05:12:33;48.53;;;34.22;;
51214;SDS011;63849;47.546;19.254;2024-02-16T05:14:59;51.50;;;32.53;;
51214;SDS011;63849;47.546;19.254;2024-02-16T05:17:25;49.88;;;33.08;;
51214;SDS011;63849;47.546;19.254;2024-02-16T05:19:51;47.42;;;34.20;;
51214;SDS011;63849;47.546;19.254;2024-02-16T05:22:18;49.70;;;33.53;;
51214;SDS011;63849;47.546;19.254;2024-02-16T05:24:46;51.80;;;34.17;;
51214;SDS011;63849;47.546;19.254;2024-02-16T05:27:12;51.65;;;34.72;;
51214;SDS011;63849;47.546;19.254;2024-02-16T05:29:38;50.70;;;34.20;;
51214;SDS011;63849;47.546;19.254;2024-02-16T05:32:04;51.20;;;34.05;;
51214;SDS011;63849;47.546;19.254;2024-02-16T05:34:30;52.42;;;34.28;;
51214;SDS011;63849;47.546;19.254;2024-02-16T05:37:02;49.40;;;34.05;;
51214;SDS011;63849;47.546;19.254;2024-02-16T05:39:32;49.58;;;34.65;;
51214;SDS011;63849;47.546;19.254;2024-02-16T05:42:00;48.85;;;33.47;;
51214;SDS011;63849;47.546;19.254;2024-02-16T05:44:26;52.53;;;33.28;;
51214;SDS011;63849;47.546;19.254;2024-02-16T05:46:52;48.20;;;33.63;;
51214;SDS011;63849;47.546;19.254;2024-02-16T05:49:18;46.95;;;32.95;;
51214;SDS011;63849;47.546;19.254;2024-02-16T05:51:44;46.78;;;33.08;;
51214;SDS011;63849;47.546;19.254;2024-02-16T05:54:30;50.03;;;33.20;;
51214;SDS011;63849;47.546;19.254;2024-02-16T05:56:56;50.95;;;34.80;;
51214;SDS011;63849;47.546;19.254;2024-02-16T05:59:22;46.22;;;33.72;;
51214;SDS011;63849;47.546;19.254;2024-02-16T06:01:50;48.58;;;32.35;;
51214;SDS011;63849;47.546;19.254;2024-02-16T06:04:15;45.03;;;31.42;;
51214;SDS011;63849;47.546;19.254;2024-02-16T06:06:41;48.78;;;33.22;;
51214;SDS011;63849;47.546;19.254;2024-02-16T06:09:07;50.83;;;33.47;;
51214;SDS011;63849;47.546;19.254;2024-02-16T06:11:32;58.05;;;35.28;;
51214;SDS011;63849;47.546;19.254;2024-02-16T06:14:01;49.83;;;32.88;;
51214;SDS011;63849;47.546;19.254;2024-02-16T06:16:27;48.90;;;33.83;;
51214;SDS011;63849;47.546;19.254;2024-02-16T06:18:53;48.90;;;34.17;;
51214;SDS011;63849;47.546;19.254;2024-02-16T06:21:18;48.03;;;33.63;;
51214;SDS011;63849;47.546;19.254;2024-02-16T06:23:44;48.15;;;33.38;;
51214;SDS011;63849;47.546;19.254;2024-02-16T06:26:10;54.33;;;34.75;;
51214;SDS011;63849;47.546;19.254;2024-02-16T06:28:36;47.17;;;32.65;;
51214;SDS011;63849;47.546;19.254;2024-02-16T06:31:02;44.17;;;29.63;;
51214;SDS011;63849;47.546;19.254;2024-02-16T06:33:27;38.50;;;29.80;;
51214;SDS011;63849;47.546;19.254;2024-02-16T06:35:53;46.00;;;30.55;;
51214;SDS011;63849;47.546;19.254;2024-02-16T06:38:19;43.83;;;29.75;;
51214;SDS011;63849;47.546;19.254;2024-02-16T06:40:44;42.55;;;28.67;;
51214;SDS011;63849;47.546;19.254;2024-02-16T06:43:10;42.83;;;29.77;;
51214;SDS011;63849;47.546;19.254;2024-02-16T06:45:36;43.08;;;30.00;;
51214;SDS011;63849;47.546;19.254;2024-02-16T06:48:01;46.65;;;32.05;;
51214;SDS011;63849;47.546;19.254;2024-02-16T06:50:27;40.83;;;29.83;;
51214;SDS011;63849;47.546;19.254;2024-02-16T06:52:52;37.85;;;27.08;;
51214;SDS011;63849;47.546;19.254;2024-02-16T06:55:20;39.33;;;27.88;;
51214;SDS011;63849;47.546;19.254;2024-02-16T06:57:46;40.83;;;25.92;;
51214;SDS011;63849;47.546;19.254;2024-02-16T07:00:11;39.75;;;27.92;;
51214;SDS011;63849;47.546;19.254;2024-02-16T07:02:38;38.42;;;27.23;;
51214;SDS011;63849;47.546;19.254;2024-02-16T07:05:06;37.70;;;26.65;;
51214;SDS011;63849;47.546;19.254;2024-02-16T07:07:32;43.25;;;26.63;;
51214;SDS011;63849;47.546;19.254;2024-02-16T07:10:00;43.42;;;29.27;;
51214;SDS011;63849;47.546;19.254;2024-02-16T07:12:27;39.35;;;26.85;;
51214;SDS011;63849;47.546;19.254;2024-02-16T07:14:53;36.05;;;25.27;;
51214;SDS011;63849;47.546;19.254;2024-02-16T07:17:18;40.50;;;26.98;;
51214;SDS011;63849;47.546;19.254;2024-02-16T07:19:45;37.92;;;26.15;;
51214;SDS011;63849;47.546;19.254;2024-02-16T07:22:10;37.83;;;25.83;;
51214;SDS011;63849;47.546;19.254;2024-02-16T07:24:37;38.22;;;25.33;;
51214;SDS011;63849;47.546;19.254;2024-02-16T07:27:03;33.95;;;24.48;;
51214;SDS011;63849;47.546;19.254;2024-02-16T07:29:29;33.42;;;23.98;;
51214;SDS011;63849;47.546;19.254;2024-02-16T07:31:54;35.25;;;25.52;;
51214;SDS011;63849;47.546;19.254;2024-02-16T07:34:21;35.70;;;24.67;;
51214;SDS011;63849;47.546;19.254;2024-02-16T07:36:47;36.30;;;23.67;;
51214;SDS011;63849;47.546;19.254;2024-02-16T07:39:13;35.17;;;25.02;;
51214;SDS011;63849;47.546;19.254;2024-02-16T07:41:39;33.67;;;24.05;;
51214;SDS011;63849;47.546;19.254;2024-02-16T07:44:04;32.97;;;23.67;;
51214;SDS011;63849;47.546;19.254;2024-02-16T07:46:31;28.73;;;21.05;;
51214;SDS011;63849;47.546;19.254;2024-02-16T07:48:56;32.50;;;22.15;;
51214;SDS011;63849;47.546;19.254;2024-02-16T07:51:22;29.83;;;21.08;;
51214;SDS011;63849;47.546;19.254;2024-02-16T07:53:49;32.05;;;22.42;;
51214;SDS011;63849;47.546;19.254;2024-02-16T07:56:15;27.98;;;20.27;;
51214;SDS011;63849;47.546;19.254;2024-02-16T07:58:41;29.73;;;19.02;;
51214;SDS011;63849;47.546;19.254;2024-02-16T08:01:11;22.88;;;16.98;;
51214;SDS011;63849;47.546;19.254;2024-02-16T08:03:40;26.33;;;18.60;;
51214;SDS011;63849;47.546;19.254;2024-02-16T08:06:06;29.35;;;19.23;;
51214;SDS011;63849;47.546;19.254;2024-02-16T08:08:32;26.33;;;18.88;;
51214;SDS011;63849;47.546;19.254;2024-02-16T08:10:58;23.45;;;17.63;;
51214;SDS011;63849;47.546;19.254;2024-02-16T08:13:23;28.65;;;19.63;;
51214;SDS011;63849;47.546;19.254;2024-02-16T08:15:49;27.33;;;19.15;;
51214;SDS011;63849;47.546;19.254;2024-02-16T08:18:17;24.02;;;18.85;;
51214;SDS011;63849;47.546;19.254;2024-02-16T08:20:43;22.98;;;18.95;;
51214;SDS011;63849;47.546;19.254;2024-02-16T08:23:08;23.92;;;18.15;;
51214;SDS011;63849;47.546;19.254;2024-02-16T08:25:34;26.52;;;19.10;;
51214;SDS011;63849;47.546;19.254;2024-02-16T08:28:00;28.02;;;18.13;;
51214;SDS011;63849;47.546;19.254;2024-02-16T08:30:27;29.45;;;19.13;;
51214;SDS011;63849;47.546;19.254;2024-02-16T08:32:52;24.83;;;18.85;;
51214;SDS011;63849;47.546;19.254;2024-02-16T08:35:18;26.75;;;18.95;;
51214;SDS011;63849;47.546;19.254;2024-02-16T08:37:44;26.58;;;17.80;;
51214;SDS011;63849;47.546;19.254;2024-02-16T08:40:12;24.08;;;17.35;;
51214;SDS011;63849;47.546;19.254;2024-02-16T08:42:40;18.02;;;14.50;;
51214;SDS011;63849;47.546;19.254;2024-02-16T08:45:07;18.65;;;14.40;;
51214;SDS011;63849;47.546;19.254;2024-02-16T08:47:33;18.60;;;13.95;;
51214;SDS011;63849;47.546;19.254;2024-02-16T08:49:59;20.88;;;15.95;;
51214;SDS011;63849;47.546;19.254;2024-02-16T08:52:24;23.25;;;17.05;;
51214;SDS011;63849;47.546;19.254;2024-02-16T08:54:51;20.52;;;16.13;;
51214;SDS011;63849;47.546;19.254;2024-02-16T08:57:16;21.25;;;13.85;;
51214;SDS011;63849;47.546;19.254;2024-02-16T08:59:42;19.38;;;14.55;;
51214;SDS011;63849;47.546;19.254;2024-02-16T09:02:09;18.70;;;13.10;;
51214;SDS011;63849;47.546;19.254;2024-02-16T09:04:35;18.55;;;13.55;;
51214;SDS011;63849;47.546;19.254;2024-02-16T09:07:01;21.10;;;13.88;;
51214;SDS011;63849;47.546;19.254;2024-02-16T09:09:27;17.60;;;12.73;;
51214;SDS011;63849;47.546;19.254;2024-02-16T09:11:53;19.95;;;13.00;;
51214;SDS011;63849;47.546;19.254;2024-02-16T09:14:19;16.75;;;12.60;;
51214;SDS011;63849;47.546;19.254;2024-02-16T09:16:45;20.55;;;13.98;;
51214;SDS011;63849;47.546;19.254;2024-02-16T09:19:14;19.65;;;13.32;;
51214;SDS011;63849;47.546;19.254;2024-02-16T09:21:39;15.05;;;11.93;;
51214;SDS011;63849;47.546;19.254;2024-02-16T09:24:05;17.63;;;13.07;;
51214;SDS011;63849;47.546;19.254;2024-02-16T09:26:35;16.58;;;12.98;;
51214;SDS011;63849;47.546;19.254;2024-02-16T09:29:01;16.70;;;13.25;;
51214;SDS011;63849;47.546;19.254;2024-02-16T09:31:27;16.50;;;13.10;;
51214;SDS011;63849;47.546;19.254;2024-02-16T09:33:53;24.50;;;15.55;;
51214;SDS011;63849;47.546;19.254;2024-02-16T09:36:18;20.90;;;14.02;;
51214;SDS011;63849;47.546;19.254;2024-02-16T09:38:44;18.20;;;14.15;;
51214;SDS011;63849;47.546;19.254;2024-02-16T09:41:10;15.15;;;11.93;;
51214;SDS011;63849;47.546;19.254;2024-02-16T09:43:36;17.73;;;12.60;;
51214;SDS011;63849;47.546;19.254;2024-02-16T09:46:04;20.30;;;13.95;;
51214;SDS011;63849;47.546;19.254;2024-02-16T09:48:30;16.05;;;11.82;;
51214;SDS011;63849;47.546;19.254;2024-02-16T09:50:56;13.18;;;10.35;;
51214;SDS011;63849;47.546;19.254;2024-02-16T09:53:26;12.82;;;10.25;;
51214;SDS011;63849;47.546;19.254;2024-02-16T09:55:53;15.13;;;11.20;;
51214;SDS011;63849;47.546;19.254;2024-02-16T09:58:19;17.33;;;11.27;;
51214;SDS011;63849;47.546;19.254;2024-02-16T10:00:52;19.25;;;11.25;;
51214;SDS011;63849;47.546;19.254;2024-02-16T10:05:48;12.90;;;9.80;;
51214;SDS011;63849;47.546;19.254;2024-02-16T10:08:14;15.40;;;10.27;;
51214;SDS011;63849;47.546;19.254;2024-02-16T10:10:40;15.88;;;10.82;;
51214;SDS011;63849;47.546;19.254;2024-02-16T10:13:06;14.35;;;10.88;;
51214;SDS011;63849;47.546;19.254;2024-02-16T10:15:33;17.27;;;11.73;;
51214;SDS011;63849;47.546;19.254;2024-02-16T10:18:03;14.32;;;11.60;;
51214;SDS011;63849;47.546;19.254;2024-02-16T10:20:30;15.45;;;11.38;;
51214;SDS011;63849;47.546;19.254;2024-02-16T10:25:29;17.77;;;12.35;;
51214;SDS011;63849;47.546;19.254;2024-02-16T10:27:55;16.27;;;12.48;;
51214;SDS011;63849;47.546;19.254;2024-02-16T10:30:23;16.98;;;12.75;;
51214;SDS011;63849;47.546;19.254;2024-02-16T10:32:54;15.65;;;12.85;;
51214;SDS011;63849;47.546;19.254;2024-02-16T10:35:19;14.77;;;11.38;;
51214;SDS011;63849;47.546;19.254;2024-02-16T10:37:46;18.88;;;12.85;;
51214;SDS011;63849;47.546;19.254;2024-02-16T10:40:12;18.25;;;12.98;;
51214;SDS011;63849;47.546;19.254;2024-02-16T10:42:43;19.65;;;12.68;;
51214;SDS011;63849;47.546;19.254;2024-02-16T10:45:11;20.55;;;13.27;;
51214;SDS011;63849;47.546;19.254;2024-02-16T10:47:40;16.42;;;12.82;;
51214;SDS011;63849;47.546;19.254;2024-02-16T10:50:06;16.92;;;13.00;;
51214;SDS011;63849;47.546;19.254;2024-02-16T10:52:33;19.23;;;12.15;;
51214;SDS011;63849;47.546;19.254;2024-02-16T10:55:01;16.33;;;12.73;;
51214;SDS011;63849;47.546;19.254;2024-02-16T10:57:29;17.95;;;12.93;;
51214;SDS011;63849;47.546;19.254;2024-02-16T10:59:56;17.67;;;12.73;;
51214;SDS011;63849;47.546;19.254;2024-02-16T11:02:24;16.88;;;12.05;;
51214;SDS011;63849;47.546;19.254;2024-02-16T11:04:51;16.08;;;12.50;;
51214;SDS011;63849;47.546;19.254;2024-02-16T11:07:18;15.70;;;13.63;;
51214;SDS011;63849;47.546;19.254;2024-02-16T11:09:45;18.48;;;13.73;;
51214;SDS011;63849;47.546;19.254;2024-02-16T11:12:12;18.45;;;13.57;;
51214;SDS011;63849;47.546;19.254;2024-02-16T11:17:29;14.20;;;11.47;;
51214;SDS011;63849;47.546;19.254;2024-02-16T11:19:54;15.95;;;12.13;;
51214;SDS011;63849;47.546;19.254;2024-02-16T11:22:20;15.02;;;12.68;;
51214;SDS011;63849;47.546;19.254;2024-02-16T11:24:52;16.73;;;12.60;;
51214;SDS011;63849;47.546;19.254;2024-02-16T11:27:19;15.10;;;11.55;;
51214;SDS011;63849;47.546;19.254;2024-02-16T11:29:46;15.88;;;11.95;;
51214;SDS011;63849;47.546;19.254;2024-02-16T11:32:12;15.82;;;12.40;;
51214;SDS011;63849;47.546;19.254;2024-02-16T11:34:37;18.73;;;13.48;;
51214;SDS011;63849;47.546;19.254;2024-02-16T11:37:03;17.75;;;13.82;;
51214;SDS011;63849;47.546;19.254;2024-02-16T11:39:32;18.92;;;13.98;;
51214;SDS011;63849;47.546;19.254;2024-02-16T11:42:08;17.20;;;13.80;;
51214;SDS011;63849;47.546;19.254;2024-02-16T11:44:36;17.75;;;12.98;;
51214;SDS011;63849;47.546;19.254;2024-02-16T11:47:05;18.92;;;13.32;;
51214;SDS011;63849;47.546;19.254;2024-02-16T11:49:34;17.05;;;12.77;;
51214;SDS011;63849;47.546;19.254;2024-02-16T11:52:00;16.17;;;12.15;;
51214;SDS011;63849;47.546;19.254;2024-02-16T11:54:25;16.70;;;12.70;;
51214;SDS011;63849;47.546;19.254;2024-02-16T11:56:55;14.88;;;11.23;;
51214;SDS011;63849;47.546;19.254;2024-02-16T11:59:21;16.25;;;12.95;;
51214;SDS011;63849;47.546;19.254;2024-02-16T12:01:59;16.58;;;13.38;;
51214;SDS011;63849;47.546;19.254;2024-02-16T12:04:28;18.90;;;13.27;;
51214;SDS011;63849;47.546;19.254;2024-02-16T12:06:56;15.95;;;12.88;;
51214;SDS011;63849;47.546;19.254;2024-02-16T12:09:22;16.02;;;13.98;;
51214;SDS011;63849;47.546;19.254;2024-02-16T12:11:50;16.88;;;12.43;;
51214;SDS011;63849;47.546;19.254;2024-02-16T12:14:17;13.50;;;10.25;;
51214;SDS011;63849;47.546;19.254;2024-02-16T12:16:46;13.45;;;10.50;;
51214;SDS011;63849;47.546;19.254;2024-02-16T12:19:16;16.67;;;12.27;;
51214;SDS011;63849;47.546;19.254;2024-02-16T12:21:43;16.67;;;11.15;;
51214;SDS011;63849;47.546;19.254;2024-02-16T12:24:09;13.82;;;11.98;;
51214;SDS011;63849;47.546;19.254;2024-02-16T12:26:35;15.48;;;12.40;;
51214;SDS011;63849;47.546;19.254;2024-02-16T12:29:02;14.52;;;11.88;;
51214;SDS011;63849;47.546;19.254;2024-02-16T12:31:29;17.08;;;14.23;;
51214;SDS011;63849;47.546;19.254;2024-02-16T12:33:55;16.23;;;12.88;;
51214;SDS011;63849;47.546;19.254;2024-02-16T12:36:21;16.67;;;11.77;;
51214;SDS011;63849;47.546;19.254;2024-02-16T12:38:48;15.27;;;11.85;;
51214;SDS011;63849;47.546;19.254;2024-02-16T12:41:14;12.73;;;10.63;;
51214;SDS011;63849;47.546;19.254;2024-02-16T12:43:40;15.77;;;11.90;;
51214;SDS011;63849;47.546;19.254;2024-02-16T12:46:06;12.82;;;10.82;;
51214;SDS011;63849;47.546;19.254;2024-02-16T12:48:31;16.13;;;11.43;;
51214;SDS011;63849;47.546;19.254;2024-02-16T12:50:57;17.15;;;12.90;;
51214;SDS011;63849;47.546;19.254;2024-02-16T12:53:23;16.30;;;11.70;;
51214;SDS011;63849;47.546;19.254;2024-02-16T12:55:54;14.95;;;11.73;;
51214;SDS011;63849;47.546;19.254;2024-02-16T12:58:20;13.15;;;10.48;;
51214;SDS011;63849;47.546;19.254;2024-02-16T13:00:45;12.02;;;10.02;;
51214;SDS011;63849;47.546;19.254;2024-02-16T13:03:11;16.20;;;9.35;;
51214;SDS011;63849;47.546;19.254;2024-02-16T13:05:37;10.70;;;9.00;;
51214;SDS011;63849;47.546;19.254;2024-02-16T13:08:03;13.82;;;10.23;;
51214;SDS011;63849;47.546;19.254;2024-02-16T13:10:29;11.48;;;9.63;;
51214;SDS011;63849;47.546;19.254;2024-02-16T13:12:55;17.08;;;10.95;;
51214;SDS011;63849;47.546;19.254;2024-02-16T13:15:21;12.32;;;10.48;;
51214;SDS011;63849;47.546;19.254;2024-02-16T13:17:46;12.93;;;9.98;;
51214;SDS011;63849;47.546;19.254;2024-02-16T13:20:12;14.80;;;9.65;;
51214;SDS011;63849;47.546;19.254;2024-02-16T13:22:38;14.18;;;10.50;;
51214;SDS011;63849;47.546;19.254;2024-02-16T13:25:04;12.35;;;9.45;;
51214;SDS011;63849;47.546;19.254;2024-02-16T13:27:33;13.38;;;10.35;;
51214;SDS011;63849;47.546;19.254;2024-02-16T13:29:59;13.30;;;10.02;;
51214;SDS011;63849;47.546;19.254;2024-02-16T13:32:25;18.02;;;11.65;;
51214;SDS011;63849;47.546;19.254;2024-02-16T13:34:52;12.60;;;10.57;;
51214;SDS011;63849;47.546;19.254;2024-02-16T13:37:17;12.43;;;10.00;;
51214;SDS011;63849;47.546;19.254;2024-02-16T13:39:43;13.52;;;9.70;;
51214;SDS011;63849;47.546;19.254;2024-02-16T13:42:08;12.73;;;9.23;;
51214;SDS011;63849;47.546;19.254;2024-02-16T13:44:35;10.48;;;8.68;;
51214;SDS011;63849;47.546;19.254;2024-02-16T13:47:02;9.75;;;8.45;;
51214;SDS011;63849;47.546;19.254;2024-02-16T13:49:27;13.20;;;9.32;;
51214;SDS011;63849;47.546;19.254;2024-02-16T13:51:53;11.60;;;8.38;;
51214;SDS011;63849;47.546;19.254;2024-02-16T13:54:23;11.68;;;9.23;;
51214;SDS011;63849;47.546;19.254;2024-02-16T13:56:52;11.85;;;8.50;;
51214;SDS011;63849;47.546;19.254;2024-02-16T13:59:18;11.43;;;8.85;;
51214;SDS011;63849;47.546;19.254;2024-02-16T14:01:44;12.48;;;9.63;;
51214;SDS011;63849;47.546;19.254;2024-02-16T14:04:10;12.88;;;8.35;;
51214;SDS011;63849;47.546;19.254;2024-02-16T14:06:35;10.25;;;7.80;;
51214;SDS011;63849;47.546;19.254;2024-02-16T14:09:01;11.80;;;9.30;;
51214;SDS011;63849;47.546;19.254;2024-02-16T14:11:36;11.40;;;8.55;;